createdAt,value
2022-09-13T00:00:25.863Z,49.50
2022-09-13T00:02:52.315Z,49.36
2022-09-13T00:05:18.766Z,49.56
2022-09-13T00:07:45.226Z,49.54
2022-09-13T00:10:12.258Z,49.27
2022-09-13T00:12:38.719Z,49.51
2022-09-13T00:15:05.683Z,49.50
2022-09-13T00:17:32.222Z,49.52
2022-09-13T00:19:58.691Z,49.59
2022-09-13T00:22:25.140Z,49.70
2022-09-13T00:24:51.596Z,49.63
2022-09-13T00:27:18.044Z,49.58
2022-09-13T00:29:44.486Z,49.63
2022-09-13T00:32:10.934Z,49.74
2022-09-13T00:34:37.416Z,49.64
2022-09-13T00:37:03.956Z,49.68
2022-09-13T00:39:30.435Z,49.65
2022-09-13T00:41:56.910Z,49.67
2022-09-13T00:44:47.127Z,49.78
2022-09-13T00:47:14.704Z,49.66
2022-09-13T00:49:41.172Z,49.78
2022-09-13T00:52:10.376Z,49.67
2022-09-13T00:54:42.409Z,49.79
2022-09-13T00:57:08.909Z,49.85
2022-09-13T00:59:42.952Z,50.00
2022-09-13T01:02:09.308Z,49.86
2022-09-13T01:04:35.862Z,49.94
2022-09-13T01:07:04.767Z,49.88
2022-09-13T01:09:32.907Z,50.01
2022-09-13T01:12:15.230Z,49.96
2022-09-13T01:14:41.684Z,50.09
2022-09-13T01:17:08.245Z,50.04
2022-09-13T01:19:35.134Z,50.11
2022-09-13T01:22:39.615Z,50.09
2022-09-13T01:25:05.897Z,50.07
2022-09-13T01:27:44.344Z,50.16
2022-09-13T01:30:18.709Z,50.17
2022-09-13T01:33:01.143Z,50.28
2022-09-13T01:35:42.592Z,50.30
2022-09-13T01:38:26.913Z,50.28
2022-09-13T01:41:20.042Z,50.06
2022-09-13T01:43:56.153Z,49.99
2022-09-13T01:46:49.812Z,50.05
2022-09-13T01:49:30.692Z,50.13
2022-09-13T01:52:06.579Z,50.03
2022-09-13T01:54:39.800Z,50.14
2022-09-13T01:57:30.632Z,50.13
2022-09-13T02:00:01.243Z,50.42
2022-09-13T02:02:36.848Z,50.42
2022-09-13T02:05:25.041Z,50.44
2022-09-13T02:08:33.338Z,50.38
2022-09-13T02:11:17.300Z,50.55
2022-09-13T02:13:48.011Z,50.42
2022-09-13T02:16:36.492Z,50.43
2022-09-13T02:19:07.399Z,50.50
2022-09-13T02:21:38.391Z,50.48
2022-09-13T02:24:11.167Z,50.42
2022-09-13T02:26:38.124Z,50.61
2022-09-13T02:29:10.955Z,50.44
2022-09-13T02:32:20.836Z,50.57
2022-09-13T02:34:51.660Z,50.57
2022-09-13T02:37:18.189Z,50.50
2022-09-13T02:39:47.567Z,50.60
2022-09-13T02:42:21.667Z,50.56
2022-09-13T02:44:49.828Z,50.56
2022-09-13T02:47:54.075Z,50.78
2022-09-13T02:50:32.675Z,50.83
2022-09-13T02:53:26.235Z,50.89
2022-09-13T02:56:15.779Z,51.26
2022-09-13T02:59:04.022Z,51.35
2022-09-13T03:01:30.972Z,51.37
2022-09-13T03:03:57.636Z,51.43
2022-09-13T03:06:24.808Z,51.42
2022-09-13T03:08:52.190Z,51.58
2022-09-13T03:11:38.327Z,51.53
2022-09-13T03:14:16.721Z,51.67
2022-09-13T03:17:01.796Z,51.76
2022-09-13T03:19:50.955Z,51.64
2022-09-13T03:22:51.415Z,51.82
2022-09-13T03:25:30.153Z,51.99
2022-09-13T03:28:23.261Z,52.09
2022-09-13T03:30:51.852Z,52.05
2022-09-13T03:33:31.242Z,52.02
2022-09-13T03:36:09.584Z,51.96
2022-09-13T03:38:39.368Z,52.00
2022-09-13T03:41:10.741Z,52.03
2022-09-13T03:43:41.575Z,51.88
2022-09-13T03:46:11.319Z,51.98
2022-09-13T03:48:38.751Z,52.20
2022-09-13T03:51:05.990Z,52.21
2022-09-13T03:53:32.450Z,52.33
2022-09-13T03:55:58.902Z,52.22
2022-09-13T03:58:25.752Z,52.36
2022-09-13T04:00:53.183Z,52.34
2022-09-13T04:03:19.767Z,52.32
2022-09-13T04:05:46.544Z,52.47
2022-09-13T04:08:13.031Z,52.52
2022-09-13T04:10:40.672Z,52.47
2022-09-13T04:13:07.141Z,52.49
2022-09-13T04:15:33.585Z,52.46
2022-09-13T04:18:00.795Z,52.44
2022-09-13T04:20:27.236Z,52.31
2022-09-13T04:22:54.305Z,52.69
2022-09-13T04:25:21.298Z,52.45
2022-09-13T04:27:48.284Z,52.50
2022-09-13T04:30:15.138Z,52.36
2022-09-13T04:32:44.770Z,52.11
2022-09-13T04:35:11.717Z,52.18
2022-09-13T04:37:38.954Z,52.17
2022-09-13T04:40:07.631Z,52.30
2022-09-13T04:42:34.397Z,52.15
2022-09-13T04:45:00.859Z,52.26
2022-09-13T04:47:27.327Z,52.10
2022-09-13T04:49:53.793Z,52.18
2022-09-13T04:52:20.284Z,52.06
2022-09-13T04:54:47.727Z,52.54
2022-09-13T04:57:15.052Z,52.67
2022-09-13T04:59:41.494Z,52.66
2022-09-13T05:02:07.986Z,52.71
2022-09-13T05:04:34.462Z,52.76
2022-09-13T05:07:00.902Z,52.61
2022-09-13T05:09:27.461Z,52.84
2022-09-13T05:11:54.191Z,53.01
2022-09-13T05:14:20.647Z,53.26
2022-09-13T05:16:47.085Z,53.33
2022-09-13T05:19:13.553Z,53.40
2022-09-13T05:21:40.339Z,53.34
2022-09-13T05:24:06.849Z,53.45
2022-09-13T05:26:33.461Z,53.32
2022-09-13T05:29:00.205Z,53.25
2022-09-13T05:31:44.802Z,53.27
2022-09-13T05:34:12.675Z,53.30
2022-09-13T05:36:39.198Z,53.20
2022-09-13T05:39:29.639Z,53.23
2022-09-13T05:41:52.222Z,53.18
2022-09-13T05:44:18.689Z,53.22
2022-09-13T05:46:48.448Z,53.13
2022-09-13T05:49:14.959Z,53.38
2022-09-13T05:51:41.404Z,53.42
2022-09-13T05:54:08.310Z,53.37
2022-09-13T05:56:34.767Z,53.37
2022-09-13T05:59:01.228Z,53.25
2022-09-13T06:01:28.282Z,53.02
2022-09-13T06:03:56.400Z,53.00
2022-09-13T06:06:23.252Z,52.98
2022-09-13T06:08:56.211Z,53.20
2022-09-13T06:11:23.082Z,52.81
2022-09-13T06:13:49.567Z,52.78
2022-09-13T06:16:16.955Z,52.54
2022-09-13T06:18:43.621Z,52.84
2022-09-13T06:21:18.190Z,52.40
2022-09-13T06:23:45.922Z,52.65
2022-09-13T06:26:13.813Z,52.51
2022-09-13T06:28:40.332Z,52.60
2022-09-13T06:31:07.523Z,52.55
2022-09-13T06:33:34.710Z,52.45
2022-09-13T06:36:02.480Z,52.73
2022-09-13T06:38:29.275Z,52.60
2022-09-13T06:41:06.884Z,52.62
2022-09-13T06:43:33.824Z,52.42
2022-09-13T06:46:07.699Z,52.28
2022-09-13T06:48:35.291Z,52.86
2022-09-13T06:51:02.642Z,52.99
2022-09-13T06:53:29.148Z,53.15
2022-09-13T06:56:15.018Z,53.13
2022-09-13T06:58:42.654Z,52.87
2022-09-13T07:01:20.064Z,52.93
2022-09-13T07:03:51.131Z,53.09
2022-09-13T07:06:22.654Z,52.61
2022-09-13T07:08:50.279Z,52.31
2022-09-13T07:11:18.361Z,52.05
2022-09-13T07:13:51.660Z,51.89
2022-09-13T07:16:18.427Z,51.48
2022-09-13T07:18:45.681Z,51.51
2022-09-13T07:21:12.235Z,51.44
2022-09-13T07:23:39.428Z,51.19
2022-09-13T07:26:06.580Z,51.76
2022-09-13T07:28:35.635Z,51.94
2022-09-13T07:31:22.597Z,51.63
2022-09-13T07:33:53.783Z,51.64
2022-09-13T07:36:20.220Z,51.53
2022-09-13T07:38:46.775Z,51.86
2022-09-13T07:41:17.782Z,51.82
2022-09-13T07:43:44.578Z,52.33
2022-09-13T07:46:12.536Z,52.19
2022-09-13T07:48:40.555Z,52.14
2022-09-13T07:51:14.486Z,52.02
2022-09-13T07:53:41.896Z,51.69
2022-09-13T07:56:15.940Z,51.51
2022-09-13T07:58:42.721Z,51.47
2022-09-13T08:01:22.471Z,51.66
2022-09-13T08:03:59.454Z,51.71
2022-09-13T08:06:29.838Z,51.61
2022-09-13T08:08:56.395Z,51.38
2022-09-13T08:11:25.066Z,51.71
2022-09-13T08:13:51.831Z,51.55
2022-09-13T08:16:19.448Z,51.70
2022-09-13T08:18:46.830Z,51.91
2022-09-13T08:21:13.338Z,51.94
2022-09-13T08:23:39.974Z,52.01
2022-09-13T08:26:07.926Z,51.93
2022-09-13T08:28:38.339Z,52.01
2022-09-13T08:31:08.823Z,52.15
2022-09-13T08:33:35.397Z,52.21
2022-09-13T08:36:02.363Z,51.98
2022-09-13T08:38:28.997Z,52.13
2022-09-13T08:41:01.376Z,52.20
2022-09-13T08:43:31.854Z,51.98
2022-09-13T08:46:17.205Z,52.05
2022-09-13T08:48:44.578Z,52.19
2022-09-13T08:51:40.856Z,52.14
2022-09-13T08:54:11.194Z,52.12
2022-09-13T08:57:02.485Z,52.24
2022-09-13T08:59:33.493Z,52.44
2022-09-13T09:02:12.008Z,52.35
2022-09-13T09:04:52.913Z,52.34
2022-09-13T09:07:21.414Z,52.45
2022-09-13T09:09:50.368Z,52.37
2022-09-13T09:12:20.975Z,52.45
2022-09-13T09:15:02.592Z,52.64
2022-09-13T09:17:34.372Z,52.41
2022-09-13T09:20:28.417Z,52.42
2022-09-13T09:22:55.192Z,52.55
2022-09-13T09:25:23.329Z,52.74
2022-09-13T09:27:51.155Z,52.69
2022-09-13T09:30:17.638Z,52.71
2022-09-13T09:33:13.687Z,52.70
2022-09-13T09:35:56.302Z,52.87
2022-09-13T09:38:33.432Z,52.64
2022-09-13T09:41:00.783Z,52.69
2022-09-13T09:43:30.983Z,52.81
2022-09-13T09:45:58.163Z,52.63
2022-09-13T09:48:29.073Z,52.71
2022-09-13T09:50:58.416Z,52.71
2022-09-13T09:53:37.216Z,52.56
2022-09-13T09:56:03.992Z,52.87
2022-09-13T09:58:39.132Z,52.74
2022-09-13T10:01:10.849Z,52.71
2022-09-13T10:03:37.923Z,52.88
2022-09-13T10:06:15.045Z,52.81
2022-09-13T10:08:42.110Z,53.16
2022-09-13T10:11:08.607Z,52.99
2022-09-13T10:13:35.496Z,53.01
2022-09-13T10:16:03.420Z,53.09
2022-09-13T10:18:43.900Z,52.94
2022-09-13T10:21:17.311Z,52.81
2022-09-13T10:23:44.818Z,52.88
2022-09-13T10:26:14.892Z,52.96
2022-09-13T10:29:00.988Z,52.99
2022-09-13T10:31:32.026Z,53.16
2022-09-13T10:34:00.193Z,53.09
2022-09-13T10:36:51.021Z,53.22
2022-09-13T10:39:18.603Z,52.90
2022-09-13T10:41:50.391Z,52.99
2022-09-13T10:44:41.788Z,53.25
2022-09-13T10:47:11.916Z,53.47
2022-09-13T10:49:46.182Z,53.69
2022-09-13T10:52:35.840Z,53.35
2022-09-13T10:55:18.369Z,53.83
2022-09-13T10:57:48.497Z,53.63
2022-09-13T11:00:17.758Z,54.02
2022-09-13T11:03:32.257Z,53.78
2022-09-13T11:06:12.187Z,53.55
2022-09-13T11:09:05.988Z,53.35
2022-09-13T11:11:54.262Z,53.38
2022-09-13T11:14:47.348Z,53.30
2022-09-13T11:17:35.603Z,53.68
2022-09-13T11:20:20.660Z,55.59
2022-09-13T11:22:54.295Z,56.12
2022-09-13T11:25:26.609Z,55.46
2022-09-13T11:28:17.814Z,56.52
2022-09-13T11:31:10.589Z,56.84
2022-09-13T11:33:58.419Z,57.07
2022-09-13T11:36:49.322Z,56.62
2022-09-13T11:39:38.962Z,57.24
2022-09-13T11:42:09.943Z,57.40
2022-09-13T11:44:43.429Z,57.65
2022-09-13T11:47:27.671Z,57.18
2022-09-13T11:50:09.939Z,56.82
2022-09-13T11:53:01.829Z,57.24
2022-09-13T11:55:30.659Z,57.99
2022-09-13T11:57:58.983Z,57.69
2022-09-13T12:00:37.146Z,57.48
2022-09-13T12:03:12.656Z,58.39
2022-09-13T12:05:50.863Z,57.56
2022-09-13T12:08:35.235Z,57.66
2022-09-13T12:11:20.406Z,57.09
2022-09-13T12:13:49.265Z,58.29
2022-09-13T12:16:25.262Z,58.43
2022-09-13T12:18:57.179Z,58.17
2022-09-13T12:21:25.895Z,58.00
2022-09-13T12:24:24.357Z,58.38
2022-09-13T12:27:28.328Z,59.00
2022-09-13T12:30:03.837Z,59.24
2022-09-13T12:32:30.356Z,59.50
2022-09-13T12:35:06.006Z,59.50
2022-09-13T12:37:44.029Z,59.07
2022-09-13T12:40:42.999Z,59.53
2022-09-13T12:43:22.040Z,60.04
2022-09-13T12:46:03.950Z,59.75
2022-09-13T12:48:53.101Z,60.71
2022-09-13T12:51:56.534Z,60.50
2022-09-13T12:54:48.675Z,60.63
2022-09-13T12:57:17.986Z,60.55
2022-09-13T12:59:56.934Z,59.79
2022-09-13T13:02:39.948Z,60.37
2022-09-13T13:05:28.859Z,59.73
2022-09-13T13:08:00.240Z,60.36
2022-09-13T13:10:33.005Z,60.34
2022-09-13T13:13:32.492Z,60.10
2022-09-13T13:16:01.737Z,59.70
2022-09-13T13:18:30.818Z,59.13
2022-09-13T13:20:57.150Z,59.22
2022-09-13T13:23:36.962Z,58.82
2022-09-13T13:26:26.085Z,59.21
2022-09-13T13:29:11.422Z,59.24
2022-09-13T13:31:38.295Z,59.16
2022-09-13T13:34:11.018Z,59.35
2022-09-13T13:36:40.590Z,58.84
2022-09-13T13:39:13.224Z,58.72
2022-09-13T13:41:43.834Z,59.14
2022-09-13T13:44:17.715Z,58.89
2022-09-13T13:46:44.320Z,58.47
2022-09-13T13:49:29.919Z,58.88
2022-09-13T13:52:15.678Z,58.59
2022-09-13T13:54:42.070Z,58.99
2022-09-13T13:57:20.829Z,58.70
2022-09-13T13:59:47.875Z,58.95
2022-09-13T14:02:14.358Z,59.26
2022-09-13T14:04:48.565Z,58.82
2022-09-13T14:07:45.803Z,59.08
2022-09-13T14:10:19.060Z,59.27
2022-09-13T14:12:49.798Z,59.05
2022-09-13T14:15:26.047Z,58.78
2022-09-13T14:18:20.670Z,58.95
2022-09-13T14:21:00.011Z,58.70
2022-09-13T14:23:27.084Z,58.96
2022-09-13T14:25:55.192Z,59.14
2022-09-13T14:28:21.745Z,58.81
2022-09-13T14:30:48.197Z,58.60
2022-09-13T14:33:32.188Z,59.05
2022-09-13T14:36:15.903Z,58.79
2022-09-13T14:38:51.616Z,58.67
2022-09-13T14:41:22.120Z,59.00
2022-09-13T14:43:49.120Z,58.34
2022-09-13T14:46:27.938Z,58.39
2022-09-13T14:48:56.260Z,58.76
2022-09-13T14:51:30.128Z,58.49
2022-09-13T14:54:03.993Z,58.89
2022-09-13T14:56:41.591Z,58.65
2022-09-13T14:59:17.973Z,58.71
2022-09-13T15:01:44.429Z,59.06
2022-09-13T15:04:10.991Z,59.75
2022-09-13T15:06:38.979Z,60.08
2022-09-13T15:09:11.569Z,60.10
2022-09-13T15:11:43.030Z,60.92
2022-09-13T15:14:12.442Z,60.13
2022-09-13T15:16:59.399Z,60.34
2022-09-13T15:19:31.804Z,60.29
2022-09-13T15:22:05.695Z,59.93
2022-09-13T15:24:33.667Z,60.52
2022-09-13T15:27:05.578Z,60.51
2022-09-13T15:29:35.011Z,60.20
2022-09-13T15:32:05.348Z,59.97
2022-09-13T15:34:31.838Z,59.58
2022-09-13T15:37:14.085Z,59.77
2022-09-13T15:39:51.629Z,59.71
2022-09-13T15:42:18.138Z,59.70
2022-09-13T15:44:44.656Z,59.42
2022-09-13T15:47:15.876Z,59.70
2022-09-13T15:49:42.336Z,59.85
2022-09-13T15:52:09.925Z,59.72
2022-09-13T15:54:41.299Z,60.12
2022-09-13T15:57:21.413Z,60.33
2022-09-13T15:59:47.945Z,60.92
2022-09-13T16:02:25.645Z,61.16
2022-09-13T16:04:52.359Z,61.41
2022-09-13T16:07:18.857Z,61.10
2022-09-13T16:09:45.381Z,61.15
2022-09-13T16:12:11.852Z,61.12
2022-09-13T16:14:38.358Z,61.00
2022-09-13T16:17:12.035Z,61.20
2022-09-13T16:19:38.499Z,60.87
2022-09-13T16:22:09.686Z,60.82
2022-09-13T16:24:38.626Z,60.82
2022-09-13T16:27:05.207Z,60.98
2022-09-13T16:29:31.690Z,61.37
2022-09-13T16:32:01.984Z,60.82
2022-09-13T16:34:28.452Z,61.07
2022-09-13T16:36:54.900Z,61.33
2022-09-13T16:39:21.745Z,61.84
2022-09-13T16:41:48.672Z,62.21
2022-09-13T16:44:15.743Z,62.93
2022-09-13T16:46:42.341Z,62.99
2022-09-13T16:49:11.057Z,63.42
2022-09-13T16:51:37.934Z,63.25
2022-09-13T16:54:04.466Z,62.84
2022-09-13T16:56:30.918Z,62.57
2022-09-13T16:58:57.481Z,63.13
2022-09-13T17:01:25.443Z,62.95
2022-09-13T17:03:54.721Z,62.80
2022-09-13T17:06:22.304Z,62.45
2022-09-13T17:08:50.892Z,62.92
2022-09-13T17:11:18.916Z,62.90
2022-09-13T17:13:45.403Z,63.05
2022-09-13T17:16:24.635Z,62.98
2022-09-13T17:18:51.211Z,62.75
2022-09-13T17:21:17.834Z,62.32
2022-09-13T17:23:44.376Z,62.67
2022-09-13T17:26:11.295Z,62.98
2022-09-13T17:28:38.515Z,62.75
2022-09-13T17:31:05.342Z,62.92
2022-09-13T17:33:31.809Z,62.52
2022-09-13T17:36:02.614Z,62.22
2022-09-13T17:38:29.229Z,62.42
2022-09-13T17:41:03.003Z,62.47
2022-09-13T17:43:29.617Z,62.11
2022-09-13T17:45:56.099Z,62.29
2022-09-13T17:48:22.540Z,61.75
2022-09-13T17:50:49.006Z,62.08
2022-09-13T17:53:15.523Z,62.23
2022-09-13T17:55:48.992Z,61.95
2022-09-13T17:58:15.789Z,61.35
2022-09-13T18:00:42.488Z,61.57
2022-09-13T18:03:09.009Z,60.44
2022-09-13T18:05:35.526Z,60.33
2022-09-13T18:08:02.330Z,59.82
2022-09-13T18:10:49.165Z,59.76
2022-09-13T18:13:15.257Z,59.75
2022-09-13T18:15:41.764Z,59.67
2022-09-13T18:18:08.230Z,60.02
2022-09-13T18:20:38.650Z,60.01
2022-09-13T18:23:08.048Z,60.33
2022-09-13T18:25:34.728Z,60.30
2022-09-13T18:28:01.582Z,59.89
2022-09-13T18:30:28.092Z,60.16
2022-09-13T18:32:54.550Z,60.06
2022-09-13T18:35:21.090Z,59.71
2022-09-13T18:37:47.933Z,59.42
2022-09-13T18:40:15.295Z,59.33
2022-09-13T18:42:45.071Z,59.44
2022-09-13T18:45:11.826Z,59.17
2022-09-13T18:47:38.283Z,59.25
2022-09-13T18:50:05.251Z,59.17
2022-09-13T18:52:31.849Z,59.27
2022-09-13T18:54:58.355Z,59.29
2022-09-13T18:57:24.858Z,59.18
2022-09-13T18:59:51.345Z,59.06
2022-09-13T19:02:17.998Z,59.06
2022-09-13T19:04:44.620Z,59.14
2022-09-13T19:07:11.090Z,59.21
2022-09-13T19:09:37.722Z,59.03
2022-09-13T19:12:05.521Z,58.84
2022-09-13T19:14:32.738Z,58.82
2022-09-13T19:17:02.971Z,58.94
2022-09-13T19:19:30.976Z,59.04
2022-09-13T19:21:57.540Z,59.41
2022-09-13T19:24:24.294Z,58.96
2022-09-13T19:26:51.606Z,58.81
2022-09-13T19:29:19.818Z,58.79
2022-09-13T19:31:50.056Z,58.77
2022-09-13T19:34:17.919Z,58.45
2022-09-13T19:36:44.459Z,58.46
2022-09-13T19:39:11.083Z,58.07
2022-09-13T19:41:37.986Z,58.08
2022-09-13T19:44:04.784Z,57.91
2022-09-13T19:46:38.836Z,57.57
2022-09-13T19:49:05.579Z,57.73
2022-09-13T19:51:33.799Z,57.55
2022-09-13T19:54:00.453Z,57.22
2022-09-13T19:56:28.537Z,57.18
2022-09-13T19:58:55.048Z,57.13
2022-09-13T20:01:26.129Z,56.91
2022-09-13T20:03:54.405Z,56.86
2022-09-13T20:06:21.703Z,56.74
2022-09-13T20:08:48.188Z,56.39
2022-09-13T20:11:16.076Z,56.25
2022-09-13T20:13:42.843Z,56.34
2022-09-13T20:16:16.646Z,56.29
2022-09-13T20:18:43.145Z,55.93
2022-09-13T20:21:09.955Z,55.68
2022-09-13T20:23:38.033Z,55.57
2022-09-13T20:26:04.938Z,55.47
2022-09-13T20:28:31.841Z,55.54
2022-09-13T20:31:00.080Z,55.29
2022-09-13T20:33:27.230Z,55.24
2022-09-13T20:35:53.720Z,54.90
2022-09-13T20:38:20.864Z,54.93
2022-09-13T20:40:47.342Z,54.84
2022-09-13T20:43:14.535Z,54.96
2022-09-13T20:45:41.322Z,54.63
2022-09-13T20:48:07.803Z,54.72
2022-09-13T20:50:34.271Z,54.97
2022-09-13T20:53:01.279Z,54.88
2022-09-13T20:55:27.802Z,54.73
2022-09-13T20:57:54.541Z,54.81
2022-09-13T21:00:21.039Z,54.62
2022-09-13T21:02:48.495Z,54.50
2022-09-13T21:05:15.052Z,54.48
2022-09-13T21:08:00.133Z,54.43
2022-09-13T21:10:26.616Z,54.59
2022-09-13T21:12:53.147Z,54.45
2022-09-13T21:15:19.915Z,54.10
2022-09-13T21:17:47.530Z,54.21
2022-09-13T21:20:14.568Z,54.09
2022-09-13T21:22:41.474Z,54.00
2022-09-13T21:25:08.370Z,54.01
2022-09-13T21:27:34.816Z,54.04
2022-09-13T21:30:01.846Z,53.94
2022-09-13T21:32:28.973Z,53.78
2022-09-13T21:34:55.555Z,53.61
2022-09-13T21:37:22.021Z,53.67
2022-09-13T21:39:48.536Z,53.58
2022-09-13T21:42:15.897Z,53.60
2022-09-13T21:44:42.367Z,53.41
2022-09-13T21:47:08.813Z,53.54
2022-09-13T21:49:35.279Z,53.52
2022-09-13T21:52:01.846Z,53.43
2022-09-13T21:54:28.311Z,53.39
2022-09-13T21:56:54.840Z,53.27
2022-09-13T21:59:22.089Z,53.30
2022-09-13T22:01:51.259Z,53.23
2022-09-13T22:04:22.362Z,53.31
2022-09-13T22:06:51.570Z,53.13
2022-09-13T22:09:18.313Z,52.92
2022-09-13T22:11:45.798Z,53.01
2022-09-13T22:14:13.325Z,53.02
2022-09-13T22:16:40.617Z,53.11
2022-09-13T22:19:09.328Z,52.99
2022-09-13T22:21:38.173Z,52.84
2022-09-13T22:24:04.827Z,52.77
2022-09-13T22:26:33.537Z,52.96
2022-09-13T22:28:59.993Z,52.92
2022-09-13T22:31:31.169Z,52.76
2022-09-13T22:34:00.974Z,52.69
2022-09-13T22:36:27.488Z,52.66
2022-09-13T22:38:55.059Z,52.75
2022-09-13T22:41:31.725Z,52.50
2022-09-13T22:44:01.598Z,52.46
2022-09-13T22:46:30.047Z,52.50
2022-09-13T22:48:56.589Z,52.46
2022-09-13T22:51:23.084Z,52.60
2022-09-13T22:53:50.399Z,52.41
2022-09-13T22:56:27.964Z,52.42
2022-09-13T22:58:55.589Z,52.36
2022-09-13T23:01:22.237Z,52.32
2022-09-13T23:03:48.867Z,52.40
2022-09-13T23:06:18.775Z,52.32
2022-09-13T23:08:45.579Z,52.24
2022-09-13T23:11:19.803Z,52.21
2022-09-13T23:13:46.902Z,52.44
2022-09-13T23:16:20.635Z,52.22
2022-09-13T23:18:47.397Z,52.28
2022-09-13T23:21:14.040Z,52.24
2022-09-13T23:23:40.492Z,52.25
2022-09-13T23:26:09.380Z,52.05
2022-09-13T23:28:36.548Z,52.13
2022-09-13T23:31:18.677Z,52.10
2022-09-13T23:33:46.667Z,52.12
2022-09-13T23:36:13.996Z,52.05
2022-09-13T23:38:40.775Z,52.00
2022-09-13T23:41:07.358Z,51.99
2022-09-13T23:43:34.076Z,52.02
2022-09-13T23:46:00.630Z,52.08
2022-09-13T23:48:27.094Z,52.04
2022-09-13T23:51:07.242Z,52.01
2022-09-13T23:53:34.361Z,51.88
2022-09-13T23:56:00.828Z,51.82
2022-09-13T23:58:27.497Z,52.06
